Terminal Aerodrome Forecast
Issued by NWS Cleveland, OH

Home | Current Version | Previous Version | Graphics & Text | Print | Product List | Glossary On
Versions: 1 2 3 4 5 6 7 8 9 10 11 12 13 14 15 16 17 18 19 20 21 22 23 24 25 26 27
933
FTUS41 KCLE 050256 AAA
TAFCLE
TAF AMD
KCLE 050256Z 0503/0606 14009KT P6SM -RASN SCT025 OVC035
      TEMPO 0503/0505 4SM -RASN OVC025
     FM050500 15010KT P6SM OVC025
      TEMPO 0505/0507 OVC012
     FM050700 22012KT P6SM OVC007
     FM051500 27010KT P6SM OVC025
     FM052200 23005KT P6SM BKN250=

USA.gov is the U.S. government's official web portal to all federal, state and local government web resources and services.